Climatologie pour Saint-Brevin les Pins
Jour • Résumé pour juin 1, 2017 Système :  Métrique    Anglais   Mixte
« - 1 jour
+ 1 jour »
Jour Semaine Mois Année Personnalisé
  Maximum : Minimum : Moyenne :
Température sous abri : 26.8 °C 12.9 °C 19.9 °C
Point de rosée : 20.7 °C 12.4 °C 16 °C
Humidité : 98 % 59 % 80 %
Vitesse du vent : 16.1 km/h 0.0 km/h 3.4 km/h
Rafale : 22.5 km/h - -
Direction :- - SW
Pression : 1020.5 hPa 1017.2 hPa -
Précipitations : 0.0 mm    
Historical Graphs
 
 
Tableau de données pour juin 1, 2017
Heure Tempé Pt rosée Pression Vent Vitesse Rafale Humidité Taux pluie (/hr) Soleil
00:00 14.6 °C 13.3 °C 1020.2 hPa Calm     92 % 0.0 mm 0 W/m2
00:05 14.5 °C 13.2 °C 1020.5 hPa Calm     92 % 0.0 mm 0 W/m2
00:10 14.3 °C 13.1 °C 1020.5 hPa Calm     92 % 0.0 mm 0 W/m2
00:15 14.3 °C 13.2 °C 1020.5 hPa Calm     93 % 0.0 mm 0 W/m2
00:20 14.3 °C 13.2 °C 1020.5 hPa Calm     93 % 0.0 mm 0 W/m2
00:25 14.3 °C 13.2 °C 1020.5 hPa Calm     93 % 0.0 mm 0 W/m2
00:35 14.3 °C 13.3 °C 1020.5 hPa Calm     94 % 0.0 mm 0 W/m2
00:40 14.2 °C 13.2 °C 1020.5 hPa Calm     94 % 0.0 mm 0 W/m2
00:45 14.2 °C 13.2 °C 1020.5 hPa Calm     94 % 0.0 mm 0 W/m2
00:50 14.1 °C 13.1 °C 1020.5 hPa Calm     94 % 0.0 mm 0 W/m2
00:55 14.1 °C 13.1 °C 1020.5 hPa Calm     94 % 0.0 mm 0 W/m2
01:00 14.0 °C 13.0 °C 1020.5 hPa Calm     94 % 0.0 mm 0 W/m2
01:05 14.0 °C 13.2 °C 1020.2 hPa Calm     95 % 0.0 mm 0 W/m2
01:10 14.1 °C 13.3 °C 1020.2 hPa Calm     95 % 0.0 mm 0 W/m2
01:15 14.1 °C 13.3 °C 1020.2 hPa Calm     95 % 0.0 mm 0 W/m2
01:20 14.1 °C 13.3 °C 1020.2 hPa Calm     95 % 0.0 mm 0 W/m2
01:25 14.0 °C 13.2 °C 1020.2 hPa Calm     95 % 0.0 mm 0 W/m2
01:30 13.9 °C 13.2 °C 1020.2 hPa Calm     95 % 0.0 mm 0 W/m2
01:35 13.8 °C 13.0 °C 1020.2 hPa Calm     95 % 0.0 mm 0 W/m2
01:40 13.8 °C 13.0 °C 1020.2 hPa Calm     95 % 0.0 mm 0 W/m2
01:45 13.7 °C 13.1 °C 1020.2 hPa Calm     96 % 0.0 mm 0 W/m2
01:50 13.7 °C 13.1 °C 1020.2 hPa Calm     96 % 0.0 mm 0 W/m2
01:55 13.6 °C 12.8 °C 1020.2 hPa Calm     95 % 0.0 mm 0 W/m2
02:00 13.4 °C 12.6 °C 1020.2 hPa Calm     95 % 0.0 mm 0 W/m2
02:05 13.3 °C 12.7 °C 1020.2 hPa Calm     96 % 0.0 mm 0 W/m2
02:10 13.3 °C 12.7 °C 1020.2 hPa Calm   1.6 km/h 96 % 0.0 mm 0 W/m2
02:15 13.3 °C 12.7 °C 1020.2 hPa Calm   1.6 km/h 96 % 0.0 mm 0 W/m2
02:20 13.2 °C 12.6 °C 1020.2 hPa NW 1.6 km/h 1.6 km/h 96 % 0.0 mm 0 W/m2
02:25 13.3 °C 12.7 °C 1020.2 hPa Calm   3.2 km/h 96 % 0.0 mm 0 W/m2
02:30 13.5 °C 13.0 °C 1020.2 hPa Calm   3.2 km/h 97 % 0.0 mm 0 W/m2
02:35 13.7 °C 13.1 °C 1019.9 hPa Calm   4.8 km/h 96 % 0.0 mm 0 W/m2
02:40 13.8 °C 13.4 °C 1019.9 hPa NNW 3.2 km/h 6.4 km/h 97 % 0.0 mm 0 W/m2
02:45 13.8 °C 13.2 °C 1019.9 hPa NNW 4.8 km/h 6.4 km/h 96 % 0.0 mm 0 W/m2
02:50 13.8 °C 13.4 °C 1019.9 hPa North 1.6 km/h 6.4 km/h 97 % 0.0 mm 0 W/m2
02:55 13.9 °C 13.4 °C 1019.9 hPa Calm   4.8 km/h 97 % 0.0 mm 0 W/m2
03:00 13.9 °C 13.4 °C 1019.9 hPa North 1.6 km/h 4.8 km/h 97 % 0.0 mm 0 W/m2
03:05 13.9 °C 13.4 °C 1019.9 hPa Calm   4.8 km/h 97 % 0.0 mm 0 W/m2
03:10 13.9 °C 13.4 °C 1019.5 hPa Calm   4.8 km/h 97 % 0.0 mm 0 W/m2
03:15 13.9 °C 13.4 °C 1019.5 hPa Calm   4.8 km/h 97 % 0.0 mm 0 W/m2
03:20 13.8 °C 13.3 °C 1019.5 hPa Calm   4.8 km/h 97 % 0.0 mm 0 W/m2
03:25 13.8 °C 13.3 °C 1019.5 hPa Calm   4.8 km/h 97 % 0.0 mm 0 W/m2
03:30 13.8 °C 13.4 °C 1019.9 hPa Calm   3.2 km/h 97 % 0.0 mm 0 W/m2
03:35 13.8 °C 13.3 °C 1019.5 hPa North 1.6 km/h 3.2 km/h 97 % 0.0 mm 0 W/m2
03:40 13.8 °C 13.3 °C 1019.5 hPa Calm   4.8 km/h 97 % 0.0 mm 0 W/m2
03:45 13.8 °C 13.4 °C 1019.5 hPa Calm   6.4 km/h 97 % 0.0 mm 0 W/m2
03:50 13.9 °C 13.5 °C 1019.5 hPa NE 1.6 km/h 6.4 km/h 97 % 0.0 mm 0 W/m2
03:55 14.0 °C 13.5 °C 1019.5 hPa Calm   6.4 km/h 97 % 0.0 mm 0 W/m2
04:00 14.0 °C 13.4 °C 1019.5 hPa NE 3.2 km/h 6.4 km/h 96 % 0.0 mm 0 W/m2
04:05 14.0 °C 13.5 °C 1019.2 hPa NE 1.6 km/h 3.2 km/h 97 % 0.0 mm 0 W/m2
04:10 14.1 °C 13.6 °C 1019.2 hPa NE 3.2 km/h 3.2 km/h 97 % 0.0 mm 0 W/m2
04:15 14.1 °C 13.5 °C 1019.5 hPa Calm   4.8 km/h 96 % 0.0 mm 0 W/m2
04:20 13.9 °C 13.3 °C 1019.2 hPa Calm   4.8 km/h 96 % 0.0 mm 0 W/m2
04:25 13.9 °C 13.3 °C 1019.5 hPa Calm   4.8 km/h 96 % 0.0 mm 0 W/m2
04:30 13.9 °C 13.5 °C 1019.5 hPa Calm   4.8 km/h 97 % 0.0 mm 0 W/m2
04:35 13.9 °C 13.3 °C 1019.2 hPa Calm   4.8 km/h 96 % 0.0 mm 0 W/m2
04:40 13.9 °C 13.5 °C 1019.2 hPa Calm   3.2 km/h 97 % 0.0 mm 0 W/m2
04:45 14.1 °C 13.6 °C 1019.2 hPa Calm   4.8 km/h 97 % 0.0 mm 0 W/m2
04:50 14.1 °C 13.4 °C 1019.2 hPa Calm   4.8 km/h 96 % 0.0 mm 0 W/m2
04:55 14.2 °C 13.8 °C 1019.2 hPa NE 1.6 km/h 4.8 km/h 97 % 0.0 mm 0 W/m2
05:00 14.3 °C 13.6 °C 1019.2 hPa Calm   4.8 km/h 96 % 0.0 mm 0 W/m2
05:05 14.4 °C 13.8 °C 1019.2 hPa Calm   4.8 km/h 96 % 0.0 mm 0 W/m2
05:10 14.4 °C 13.8 °C 1019.2 hPa Calm   3.2 km/h 96 % 0.0 mm 0 W/m2
05:15 14.2 °C 13.4 °C 1019.2 hPa Calm   3.2 km/h 95 % 0.0 mm 0 W/m2
05:20 14.1 °C 13.4 °C 1019.2 hPa Calm   3.2 km/h 96 % 0.0 mm 0 W/m2
05:25 13.9 °C 13.3 °C 1019.2 hPa Calm   3.2 km/h 96 % 0.0 mm 0 W/m2
05:30 13.8 °C 13.2 °C 1019.2 hPa Calm   3.2 km/h 96 % 0.0 mm 0 W/m2
05:35 13.7 °C 13.1 °C 1019.2 hPa Calm   3.2 km/h 96 % 0.0 mm 0 W/m2
05:40 13.6 °C 12.9 °C 1019.2 hPa Calm   1.6 km/h 96 % 0.0 mm 0 W/m2
05:45 13.4 °C 12.8 °C 1019.2 hPa Calm     96 % 0.0 mm 0 W/m2
05:50 13.2 °C 12.5 °C 1019.5 hPa Calm     96 % 0.0 mm 0 W/m2
05:55 13.1 °C 12.5 °C 1019.5 hPa Calm     96 % 0.0 mm 0 W/m2
06:00 13.1 °C 12.5 °C 1019.5 hPa Calm     96 % 0.0 mm 0 W/m2
06:05 13.1 °C 12.4 °C 1019.5 hPa Calm     96 % 0.0 mm 0 W/m2
06:10 13.1 °C 12.6 °C 1019.5 hPa Calm     97 % 0.0 mm 0 W/m2
06:15 13.1 °C 12.4 °C 1019.5 hPa Calm     96 % 0.0 mm 0 W/m2
06:20 13.2 °C 12.7 °C 1019.5 hPa Calm     97 % 0.0 mm 5 W/m2
06:25 13.0 °C 12.5 °C 1019.5 hPa Calm     97 % 0.0 mm 7 W/m2
06:30 13.0 °C 12.5 °C 1019.5 hPa Calm     97 % 0.0 mm 9 W/m2
06:35 12.9 °C 12.5 °C 1019.5 hPa Calm     97 % 0.0 mm 12 W/m2
06:40 12.9 °C 12.5 °C 1019.5 hPa Calm     97 % 0.0 mm 14 W/m2
06:45 13.0 °C 12.5 °C 1019.2 hPa Calm     97 % 0.0 mm 16 W/m2
06:50 13.1 °C 12.6 °C 1019.5 hPa Calm     97 % 0.0 mm 19 W/m2
06:55 13.1 °C 12.6 °C 1019.5 hPa Calm     97 % 0.0 mm 21 W/m2
07:00 13.1 °C 12.6 °C 1019.5 hPa Calm     97 % 0.0 mm 25 W/m2
07:05 13.1 °C 12.6 °C 1019.5 hPa Calm     97 % 0.0 mm 26 W/m2
07:10 13.2 °C 12.7 °C 1019.5 hPa Calm     97 % 0.0 mm 30 W/m2
07:15 13.3 °C 12.9 °C 1019.5 hPa Calm     97 % 0.0 mm 32 W/m2
07:20 13.6 °C 13.3 °C 1019.5 hPa Calm     98 % 0.0 mm 33 W/m2
07:25 14.0 °C 13.7 °C 1019.5 hPa Calm     98 % 0.0 mm 35 W/m2
07:30 14.3 °C 14.0 °C 1019.5 hPa Calm     98 % 0.0 mm 35 W/m2
07:35 14.6 °C 14.1 °C 1019.5 hPa Calm     97 % 0.0 mm 37 W/m2
07:40 14.8 °C 14.4 °C 1019.5 hPa Calm     97 % 0.0 mm 40 W/m2
07:45 15.1 °C 14.6 °C 1019.5 hPa Calm     97 % 0.0 mm 42 W/m2
07:50 15.3 °C 14.7 °C 1019.5 hPa Calm     96 % 0.0 mm 42 W/m2
07:55 15.6 °C 14.8 °C 1019.5 hPa Calm     95 % 0.0 mm 179 W/m2
08:00 15.8 °C 15.0 °C 1019.9 hPa Calm     95 % 0.0 mm 211 W/m2
08:05 16.1 °C 15.1 °C 1019.9 hPa Calm     94 % 0.0 mm 225 W/m2
08:10 16.3 °C 15.3 °C 1019.9 hPa Calm     94 % 0.0 mm 237 W/m2
08:15 16.6 °C 15.5 °C 1019.9 hPa Calm     93 % 0.0 mm 251 W/m2
08:20 16.7 °C 15.4 °C 1019.9 hPa Calm     92 % 0.0 mm 265 W/m2
08:25 16.9 °C 15.4 °C 1019.9 hPa Calm     91 % 0.0 mm 281 W/m2
08:30 17.1 °C 15.5 °C 1019.9 hPa Calm     90 % 0.0 mm 297 W/m2
08:35 17.5 °C 15.7 °C 1019.9 hPa Calm     89 % 0.0 mm 311 W/m2
08:40 17.7 °C 15.7 °C 1019.9 hPa Calm     88 % 0.0 mm 322 W/m2
08:45 18.0 °C 15.8 °C 1019.9 hPa Calm     87 % 0.0 mm 336 W/m2
08:50 18.3 °C 15.9 °C 1019.9 hPa Calm     86 % 0.0 mm 350 W/m2
08:55 18.6 °C 16.0 °C 1019.9 hPa ENE 3.2 km/h 8.0 km/h 85 % 0.0 mm 367 W/m2
09:00 18.8 °C 16.1 °C 1019.9 hPa ENE 3.2 km/h 8.0 km/h 84 % 0.0 mm 378 W/m2
09:05 19.2 °C 16.6 °C 1019.9 hPa ESE 3.2 km/h 9.7 km/h 85 % 0.0 mm 394 W/m2
09:10 19.5 °C 16.9 °C 1019.9 hPa NE 4.8 km/h 9.7 km/h 85 % 0.0 mm 410 W/m2
09:15 19.6 °C 16.6 °C 1019.9 hPa NE 3.2 km/h 8.0 km/h 83 % 0.0 mm 422 W/m2
09:20 19.8 °C 16.7 °C 1019.9 hPa NE 3.2 km/h 6.4 km/h 82 % 0.0 mm 436 W/m2
09:25 20.1 °C 16.9 °C 1019.9 hPa ENE 3.2 km/h 6.4 km/h 82 % 0.0 mm 450 W/m2
09:30 20.3 °C 16.9 °C 1019.5 hPa ENE 3.2 km/h 6.4 km/h 81 % 0.0 mm 466 W/m2
09:40 20.9 °C 17.3 °C 1019.5 hPa Calm   4.8 km/h 80 % 0.0 mm 494 W/m2
09:45 21.2 °C 17.2 °C 1019.5 hPa East 1.6 km/h 6.4 km/h 78 % 0.0 mm 510 W/m2
09:50 21.4 °C 17.6 °C 1019.5 hPa Calm   6.4 km/h 79 % 0.0 mm 522 W/m2
09:55 21.7 °C 17.5 °C 1019.5 hPa Calm   6.4 km/h 77 % 0.0 mm 534 W/m2
10:00 22.0 °C 17.8 °C 1019.5 hPa ESE 8.0 km/h 8.0 km/h 77 % 0.0 mm 548 W/m2
10:10 22.4 °C 17.9 °C 1019.5 hPa East 3.2 km/h 8.0 km/h 76 % 0.0 mm 577 W/m2
10:15 22.6 °C 17.9 °C 1019.5 hPa ENE 3.2 km/h 8.0 km/h 75 % 0.0 mm 591 W/m2
10:25 22.9 °C 17.6 °C 1019.5 hPa Calm   4.8 km/h 72 % 0.0 mm 613 W/m2
10:30 23.2 °C 17.8 °C 1019.5 hPa East 6.4 km/h 6.4 km/h 72 % 0.0 mm 628 W/m2
10:35 23.2 °C 18.5 °C 1019.5 hPa Calm   6.4 km/h 75 % 0.0 mm 642 W/m2
10:40 23.4 °C 18.1 °C 1019.5 hPa NNE 3.2 km/h 4.8 km/h 72 % 0.0 mm 652 W/m2
10:45 23.5 °C 18.2 °C 1019.5 hPa SE 4.8 km/h 6.4 km/h 72 % 0.0 mm 664 W/m2
10:50 23.9 °C 18.8 °C 1019.5 hPa NE 4.8 km/h 6.4 km/h 73 % 0.0 mm 675 W/m2
10:55 24.1 °C 18.7 °C 1019.5 hPa NNE 3.2 km/h 6.4 km/h 72 % 0.0 mm 682 W/m2
11:00 24.3 °C 18.5 °C 1019.5 hPa Calm   8.0 km/h 70 % 0.0 mm 696 W/m2
11:05 24.2 °C 17.9 °C 1019.5 hPa NNE 3.2 km/h 8.0 km/h 68 % 0.0 mm 707 W/m2
11:10 24.4 °C 18.2 °C 1019.5 hPa NE 4.8 km/h 8.0 km/h 68 % 0.0 mm 719 W/m2
11:15 24.6 °C 18.5 °C 1019.5 hPa North 6.4 km/h 9.7 km/h 69 % 0.0 mm 729 W/m2
11:20 24.8 °C 18.2 °C 1019.5 hPa ENE 8.0 km/h 12.9 km/h 67 % 0.0 mm 740 W/m2
11:25 24.7 °C 18.4 °C 1019.5 hPa North 3.2 km/h 12.9 km/h 68 % 0.0 mm 754 W/m2
11:30 24.7 °C 17.9 °C 1019.5 hPa Calm   12.9 km/h 66 % 0.0 mm 763 W/m2
11:35 24.8 °C 17.8 °C 1019.5 hPa ENE 4.8 km/h 11.3 km/h 65 % 0.0 mm 772 W/m2
11:40 25.1 °C 17.5 °C 1019.5 hPa SE 4.8 km/h 11.3 km/h 63 % 0.0 mm 775 W/m2
11:45 25.0 °C 17.7 °C 1019.5 hPa East 8.0 km/h 11.3 km/h 64 % 0.0 mm 817 W/m2
11:50 25.3 °C 18.3 °C 1019.5 hPa East 6.4 km/h 14.5 km/h 65 % 0.0 mm 833 W/m2
11:55 25.4 °C 18.1 °C 1019.5 hPa ENE 3.2 km/h 14.5 km/h 64 % 0.0 mm 854 W/m2
12:00 25.4 °C 17.3 °C 1019.5 hPa East 1.6 km/h 11.3 km/h 61 % 0.0 mm 884 W/m2
12:05 25.6 °C 18.5 °C 1019.2 hPa ENE 4.8 km/h 12.9 km/h 65 % 0.0 mm 909 W/m2
12:10 25.4 °C 17.6 °C 1019.2 hPa WSW 4.8 km/h 12.9 km/h 62 % 0.0 mm 940 W/m2
12:15 25.4 °C 17.6 °C 1019.2 hPa SE 8.0 km/h 11.3 km/h 62 % 0.0 mm 940 W/m2
12:20 24.7 °C 17.2 °C 1019.2 hPa East 8.0 km/h 11.3 km/h 63 % 0.0 mm 211 W/m2
12:25 24.7 °C 16.9 °C 1019.2 hPa East 4.8 km/h 9.7 km/h 62 % 0.0 mm 979 W/m2
12:30 25.8 °C 18.2 °C 1019.2 hPa ENE 9.7 km/h 11.3 km/h 63 % 0.0 mm 1013 W/m2
12:35 25.7 °C 17.6 °C 1019.2 hPa ESE 3.2 km/h 11.3 km/h 61 % 0.0 mm 214 W/m2
12:40 24.7 °C 17.2 °C 1019.2 hPa ESE 6.4 km/h 9.7 km/h 63 % 0.0 mm 237 W/m2
12:45 24.6 °C 17.8 °C 1019.2 hPa SSE 3.2 km/h 8.0 km/h 66 % 0.0 mm 315 W/m2
12:50 24.4 °C 17.2 °C 1019.2 hPa South 6.4 km/h 8.0 km/h 64 % 0.0 mm 244 W/m2
12:55 25.3 °C 18.0 °C 1019.2 hPa SE 11.3 km/h 12.9 km/h 64 % 0.0 mm 972 W/m2
13:00 25.1 °C 17.3 °C 1019.2 hPa Calm   12.9 km/h 62 % 0.0 mm 241 W/m2
13:05 24.8 °C 16.8 °C 1019.2 hPa Calm   11.3 km/h 61 % 0.0 mm 227 W/m2
13:10 24.5 °C 17.2 °C 1019.2 hPa WNW 6.4 km/h 8.0 km/h 64 % 0.0 mm 232 W/m2
13:15 23.7 °C 17.6 °C 1019.2 hPa WSW 6.4 km/h 16.1 km/h 69 % 0.0 mm 239 W/m2
13:20 23.8 °C 18.4 °C 1018.8 hPa Calm   16.1 km/h 72 % 0.0 mm 972 W/m2
13:25 23.8 °C 18.9 °C 1018.8 hPa WSW 9.7 km/h 12.9 km/h 74 % 0.0 mm 267 W/m2
13:30 24.4 °C 18.6 °C 1018.8 hPa WSW 3.2 km/h 12.9 km/h 70 % 0.0 mm 965 W/m2
13:35 24.7 °C 19.1 °C 1018.8 hPa NW 8.0 km/h 11.3 km/h 71 % 0.0 mm 933 W/m2
13:40 24.9 °C 19.0 °C 1018.8 hPa Calm   9.7 km/h 70 % 0.0 mm 921 W/m2
13:45 24.9 °C 18.1 °C 1018.8 hPa West 8.0 km/h 11.3 km/h 66 % 0.0 mm 925 W/m2
13:50 24.3 °C 17.8 °C 1018.8 hPa WSW 6.4 km/h 11.3 km/h 67 % 0.0 mm 921 W/m2
13:55 24.5 °C 18.7 °C 1018.8 hPa WSW 6.4 km/h 11.3 km/h 70 % 0.0 mm 916 W/m2
14:00 24.3 °C 18.3 °C 1018.8 hPa West 12.9 km/h 14.5 km/h 69 % 0.0 mm 921 W/m2
14:05 24.4 °C 18.6 °C 1018.8 hPa WNW 9.7 km/h 14.5 km/h 70 % 0.0 mm 925 W/m2
14:10 24.3 °C 19.2 °C 1018.5 hPa WSW 9.7 km/h 12.9 km/h 73 % 0.0 mm 930 W/m2
14:15 24.7 °C 18.6 °C 1018.5 hPa WSW 4.8 km/h 14.5 km/h 69 % 0.0 mm 916 W/m2
14:20 24.8 °C 19.0 °C 1018.5 hPa WNW 8.0 km/h 14.5 km/h 70 % 0.0 mm 911 W/m2
14:25 24.7 °C 17.9 °C 1018.5 hPa NW 6.4 km/h 16.1 km/h 66 % 0.0 mm 907 W/m2
14:30 24.6 °C 17.8 °C 1018.5 hPa West 12.9 km/h 16.1 km/h 66 % 0.0 mm 912 W/m2
14:35 24.3 °C 18.0 °C 1018.5 hPa WSW 3.2 km/h 14.5 km/h 68 % 0.0 mm 905 W/m2
14:40 25.7 °C 20.7 °C 1018.5 hPa West 12.9 km/h 14.5 km/h 74 % 0.0 mm 907 W/m2
14:45 25.6 °C 19.3 °C 1018.5 hPa NW 1.6 km/h 12.9 km/h 68 % 0.0 mm 898 W/m2
14:50 25.7 °C 18.3 °C 1018.5 hPa WNW 8.0 km/h 12.9 km/h 64 % 0.0 mm 888 W/m2
14:55 25.4 °C 17.9 °C 1018.5 hPa NNW 4.8 km/h 11.3 km/h 63 % 0.0 mm 870 W/m2
15:00 26.0 °C 18.7 °C 1018.5 hPa NW 6.4 km/h 11.3 km/h 64 % 0.0 mm 891 W/m2
15:05 26.2 °C 18.6 °C 1018.5 hPa WNW 8.0 km/h 11.3 km/h 63 % 0.0 mm 874 W/m2
15:10 26.2 °C 18.1 °C 1018.2 hPa Calm   11.3 km/h 61 % 0.0 mm 872 W/m2
15:15 26.8 °C 20.2 °C 1018.2 hPa NW 9.7 km/h 11.3 km/h 67 % 0.0 mm 875 W/m2
15:20 26.6 °C 18.2 °C 1018.2 hPa NW 6.4 km/h 9.7 km/h 60 % 0.0 mm 867 W/m2
15:25 26.7 °C 19.6 °C 1018.2 hPa NW 4.8 km/h 9.7 km/h 65 % 0.0 mm 854 W/m2
15:30 26.3 °C 17.6 °C 1018.2 hPa North 4.8 km/h 11.3 km/h 59 % 0.0 mm 849 W/m2
15:35 26.7 °C 18.6 °C 1018.2 hPa WNW 3.2 km/h 11.3 km/h 61 % 0.0 mm 853 W/m2
15:40 26.4 °C 18.3 °C 1018.2 hPa WNW 1.6 km/h 11.3 km/h 61 % 0.0 mm 856 W/m2
15:45 26.3 °C 17.9 °C 1018.2 hPa West 6.4 km/h 11.3 km/h 60 % 0.0 mm 844 W/m2
15:50 25.8 °C 17.7 °C 1018.2 hPa WNW 8.0 km/h 14.5 km/h 61 % 0.0 mm 831 W/m2
16:00 25.6 °C 18.0 °C 1018.2 hPa WNW 6.4 km/h 12.9 km/h 63 % 0.0 mm 835 W/m2
16:05 25.6 °C 18.0 °C 1018.2 hPa WNW 6.4 km/h 12.9 km/h 63 % 0.0 mm 821 W/m2
16:10 25.6 °C 17.5 °C 1018.2 hPa WSW 6.4 km/h 12.9 km/h 61 % 0.0 mm 791 W/m2
16:15 25.2 °C 17.7 °C 1018.2 hPa West 11.3 km/h 17.7 km/h 63 % 0.0 mm 784 W/m2
16:20 25.5 °C 18.2 °C 1018.2 hPa West 4.8 km/h 19.3 km/h 64 % 0.0 mm 768 W/m2
16:25 25.2 °C 17.9 °C 1018.2 hPa WSW 4.8 km/h 19.3 km/h 64 % 0.0 mm 765 W/m2
16:30 25.8 °C 17.9 °C 1018.2 hPa WNW 4.8 km/h 17.7 km/h 62 % 0.0 mm 761 W/m2
16:35 25.8 °C 18.3 °C 1018.2 hPa West 9.7 km/h 16.1 km/h 63 % 0.0 mm 763 W/m2
16:40 25.4 °C 17.9 °C 1018.2 hPa West 12.9 km/h 17.7 km/h 63 % 0.0 mm 735 W/m2
16:45 25.7 °C 18.1 °C 1017.8 hPa WNW 9.7 km/h 19.3 km/h 63 % 0.0 mm 742 W/m2
16:50 26.1 °C 18.0 °C 1017.8 hPa West 12.9 km/h 19.3 km/h 61 % 0.0 mm 721 W/m2
16:55 25.6 °C 17.8 °C 1017.8 hPa West 6.4 km/h 20.9 km/h 62 % 0.0 mm 707 W/m2
17:00 25.8 °C 18.5 °C 1017.8 hPa WNW 9.7 km/h 20.9 km/h 64 % 0.0 mm 694 W/m2
17:05 25.8 °C 18.3 °C 1017.8 hPa West 11.3 km/h 19.3 km/h 63 % 0.0 mm 694 W/m2
17:10 25.8 °C 18.3 °C 1017.8 hPa West 9.7 km/h 19.3 km/h 63 % 0.0 mm 687 W/m2
17:15 26.2 °C 18.6 °C 1017.8 hPa WSW 12.9 km/h 20.9 km/h 63 % 0.0 mm 664 W/m2
17:20 26.4 °C 19.3 °C 1017.8 hPa WNW 8.0 km/h 20.9 km/h 65 % 0.0 mm 654 W/m2
17:25 26.1 °C 17.7 °C 1017.8 hPa WNW 8.0 km/h 22.5 km/h 60 % 0.0 mm 647 W/m2
17:35 25.7 °C 18.6 °C 1017.5 hPa WSW 9.7 km/h 16.1 km/h 65 % 0.0 mm 617 W/m2
17:40 26.0 °C 18.4 °C 1017.5 hPa West 8.0 km/h 16.1 km/h 63 % 0.0 mm 598 W/m2
17:45 25.7 °C 17.8 °C 1017.5 hPa West 9.7 km/h 17.7 km/h 62 % 0.0 mm 577 W/m2
17:50 25.4 °C 18.8 °C 1017.5 hPa West 14.5 km/h 17.7 km/h 67 % 0.0 mm 555 W/m2
17:55 25.5 °C 18.4 °C 1017.5 hPa West 12.9 km/h 17.7 km/h 65 % 0.0 mm 547 W/m2
18:00 25.2 °C 18.4 °C 1017.5 hPa West 9.7 km/h 17.7 km/h 66 % 0.0 mm 534 W/m2
18:05 25.3 °C 18.7 °C 1017.5 hPa West 11.3 km/h 17.7 km/h 67 % 0.0 mm 520 W/m2
18:10 25.3 °C 19.0 °C 1017.5 hPa WSW 11.3 km/h 17.7 km/h 68 % 0.0 mm 508 W/m2
18:15 25.3 °C 18.5 °C 1017.5 hPa West 6.4 km/h 17.7 km/h 66 % 0.0 mm 499 W/m2
18:20 25.1 °C 18.6 °C 1017.5 hPa West 11.3 km/h 17.7 km/h 67 % 0.0 mm 480 W/m2
18:25 24.9 °C 18.4 °C 1017.5 hPa West 12.9 km/h 20.9 km/h 67 % 0.0 mm 471 W/m2
18:30 24.9 °C 18.6 °C 1017.5 hPa NW 11.3 km/h 20.9 km/h 68 % 0.0 mm 455 W/m2
18:35 24.8 °C 18.5 °C 1017.5 hPa WNW 16.1 km/h 17.7 km/h 68 % 0.0 mm 439 W/m2
18:40 24.5 °C 18.0 °C 1017.5 hPa West 6.4 km/h 17.7 km/h 67 % 0.0 mm 432 W/m2
18:45 24.6 °C 18.3 °C 1017.5 hPa West 11.3 km/h 19.3 km/h 68 % 0.0 mm 413 W/m2
18:50 24.4 °C 17.4 °C 1017.5 hPa WNW 11.3 km/h 20.9 km/h 65 % 0.0 mm 397 W/m2
18:55 24.4 °C 17.4 °C 1017.5 hPa West 4.8 km/h 20.9 km/h 65 % 0.0 mm 383 W/m2
19:00 24.6 °C 18.3 °C 1017.5 hPa NW 12.9 km/h 16.1 km/h 68 % 0.0 mm 373 W/m2
19:05 24.4 °C 17.7 °C 1017.5 hPa WSW 3.2 km/h 14.5 km/h 66 % 0.0 mm 360 W/m2
19:10 24.6 °C 18.3 °C 1017.2 hPa WSW 9.7 km/h 14.5 km/h 68 % 0.0 mm 345 W/m2
19:15 24.6 °C 17.8 °C 1017.2 hPa West 4.8 km/h 16.1 km/h 66 % 0.0 mm 329 W/m2
19:20 24.6 °C 18.3 °C 1017.2 hPa West 4.8 km/h 16.1 km/h 68 % 0.0 mm 315 W/m2
19:25 24.5 °C 17.5 °C 1017.2 hPa NW 8.0 km/h 17.7 km/h 65 % 0.0 mm 301 W/m2
19:30 24.3 °C 17.8 °C 1017.2 hPa West 4.8 km/h 17.7 km/h 67 % 0.0 mm 294 W/m2
19:35 24.3 °C 17.6 °C 1017.2 hPa Calm   17.7 km/h 66 % 0.0 mm 274 W/m2
19:40 24.5 °C 18.0 °C 1017.2 hPa WNW 6.4 km/h 17.7 km/h 67 % 0.0 mm 257 W/m2
19:45 24.4 °C 17.6 °C 1017.2 hPa WNW 8.0 km/h 12.9 km/h 66 % 0.0 mm 239 W/m2
19:50 24.3 °C 17.8 °C 1017.2 hPa NW 4.8 km/h 12.9 km/h 67 % 0.0 mm 216 W/m2
19:55 24.1 °C 17.6 °C 1017.2 hPa West 8.0 km/h 16.1 km/h 67 % 0.0 mm 199 W/m2
20:00 24.1 °C 17.8 °C 1017.2 hPa NW 6.4 km/h 16.1 km/h 68 % 0.0 mm 193 W/m2
20:05 23.9 °C 17.0 °C 1017.2 hPa NW 4.8 km/h 16.1 km/h 65 % 0.0 mm 206 W/m2
20:10 23.9 °C 17.6 °C 1017.2 hPa NW 4.8 km/h 14.5 km/h 68 % 0.0 mm 197 W/m2
20:15 23.9 °C 17.6 °C 1017.2 hPa NW 6.4 km/h 9.7 km/h 68 % 0.0 mm 169 W/m2
20:20 23.7 °C 17.2 °C 1017.2 hPa NW 4.8 km/h 12.9 km/h 67 % 0.0 mm 139 W/m2
20:25 23.5 °C 17.0 °C 1017.2 hPa WNW 4.8 km/h 12.9 km/h 67 % 0.0 mm 120 W/m2
20:30 23.3 °C 17.1 °C 1017.2 hPa WNW 9.7 km/h 11.3 km/h 68 % 0.0 mm 107 W/m2
20:35 23.1 °C 16.6 °C 1017.2 hPa WNW 1.6 km/h 11.3 km/h 67 % 0.0 mm 76 W/m2
20:40 22.9 °C 16.7 °C 1017.2 hPa NW 3.2 km/h 11.3 km/h 68 % 0.0 mm 47 W/m2
20:45 22.6 °C 16.9 °C 1017.2 hPa WNW 8.0 km/h 9.7 km/h 70 % 0.0 mm 44 W/m2
20:50 22.4 °C 16.9 °C 1017.2 hPa NW 6.4 km/h 9.7 km/h 71 % 0.0 mm 42 W/m2
20:55 22.2 °C 16.9 °C 1017.2 hPa NW 6.4 km/h 9.7 km/h 72 % 0.0 mm 40 W/m2
21:00 22.2 °C 16.9 °C 1017.2 hPa NW 3.2 km/h 9.7 km/h 72 % 0.0 mm 37 W/m2
21:05 22.1 °C 16.6 °C 1017.2 hPa WNW 4.8 km/h 9.7 km/h 71 % 0.0 mm 33 W/m2
21:10 21.9 °C 16.7 °C 1017.2 hPa WNW 1.6 km/h 9.7 km/h 72 % 0.0 mm 30 W/m2
21:15 21.7 °C 16.6 °C 1017.2 hPa WNW 4.8 km/h 8.0 km/h 73 % 0.0 mm 26 W/m2
21:20 21.4 °C 16.8 °C 1017.2 hPa Calm   9.7 km/h 75 % 0.0 mm 21 W/m2
21:25 21.3 °C 16.7 °C 1017.2 hPa NW 4.8 km/h 11.3 km/h 75 % 0.0 mm 18 W/m2
21:30 21.1 °C 16.7 °C 1017.2 hPa NW 1.6 km/h 11.3 km/h 76 % 0.0 mm 14 W/m2
21:35 20.8 °C 16.6 °C 1017.2 hPa Calm   8.0 km/h 77 % 0.0 mm 11 W/m2
21:40 20.4 °C 16.7 °C 1017.2 hPa WNW 1.6 km/h 8.0 km/h 79 % 0.0 mm 9 W/m2
21:45 20.1 °C 16.6 °C 1017.2 hPa WNW 1.6 km/h 6.4 km/h 80 % 0.0 mm 5 W/m2
21:50 19.8 °C 16.5 °C 1017.2 hPa WNW 3.2 km/h 6.4 km/h 81 % 0.0 mm 5 W/m2
21:55 19.7 °C 16.4 °C 1017.2 hPa WNW 4.8 km/h 8.0 km/h 81 % 0.0 mm 0 W/m2
22:00 19.7 °C 16.4 °C 1017.2 hPa WNW 1.6 km/h 8.0 km/h 81 % 0.0 mm 0 W/m2
22:05 19.7 °C 16.1 °C 1017.5 hPa Calm   8.0 km/h 80 % 0.0 mm 0 W/m2
22:10 19.4 °C 16.1 °C 1017.2 hPa Calm   8.0 km/h 81 % 0.0 mm 0 W/m2
22:15 19.2 °C 15.9 °C 1017.5 hPa WNW 3.2 km/h 6.4 km/h 81 % 0.0 mm 0 W/m2
22:20 19.0 °C 15.9 °C 1017.5 hPa WNW 3.2 km/h 8.0 km/h 82 % 0.0 mm 0 W/m2
22:25 18.8 °C 15.9 °C 1017.5 hPa WNW 1.6 km/h 8.0 km/h 83 % 0.0 mm 0 W/m2
22:30 18.6 °C 15.8 °C 1017.5 hPa WNW 4.8 km/h 6.4 km/h 84 % 0.0 mm 0 W/m2
22:35 18.3 °C 15.6 °C 1017.5 hPa Calm   6.4 km/h 84 % 0.0 mm 0 W/m2
22:40 18.1 °C 15.5 °C 1017.5 hPa Calm   4.8 km/h 85 % 0.0 mm 0 W/m2
22:45 17.9 °C 15.6 °C 1017.5 hPa WNW 1.6 km/h 4.8 km/h 86 % 0.0 mm 0 W/m2
22:50 17.8 °C 15.6 °C 1017.5 hPa Calm   4.8 km/h 87 % 0.0 mm 0 W/m2
22:55 17.7 °C 15.5 °C 1017.5 hPa Calm   4.8 km/h 87 % 0.0 mm 0 W/m2
23:00 17.4 °C 15.3 °C 1017.5 hPa WNW 1.6 km/h 3.2 km/h 87 % 0.0 mm 0 W/m2
23:05 17.3 °C 15.5 °C 1017.5 hPa WNW 3.2 km/h 4.8 km/h 89 % 0.0 mm 0 W/m2
23:10 17.3 °C 15.3 °C 1017.5 hPa Calm   4.8 km/h 88 % 0.0 mm 0 W/m2
23:15 17.3 °C 15.5 °C 1017.5 hPa Calm   3.2 km/h 89 % 0.0 mm 0 W/m2
23:20 17.4 °C 15.6 °C 1017.5 hPa Calm   1.6 km/h 89 % 0.0 mm 0 W/m2
23:25 17.3 °C 15.4 °C 1017.5 hPa Calm   1.6 km/h 89 % 0.0 mm 0 W/m2
23:30 17.3 °C 15.4 °C 1017.5 hPa Calm   1.6 km/h 89 % 0.0 mm 0 W/m2
23:35 17.3 °C 15.4 °C 1017.5 hPa Calm   1.6 km/h 89 % 0.0 mm 0 W/m2
23:45 17.2 °C 15.5 °C 1017.5 hPa Calm   3.2 km/h 90 % 0.0 mm 0 W/m2
23:55 16.9 °C 15.3 °C 1017.5 hPa Calm   1.6 km/h 90 % 0.0 mm 0 W/m2
Avec l'autorisation de Weather Underground - 1.75 mb